Latest Weather Observations for Cape Jaffa

IDS60801

Issued at 8:05 pm CST Wednesday 20 August 2014 (issued every 30 minutes, with the page automatically refreshed every 10 minutes)

About weather observations | Map of weather stations | Latest weather observations for SA | Other Formats
Station Details ID: 026095 Name: THE LIMESTONE Lat: -36.97 Lon: 139.72 Height: 17.0 m
Data from the previous 72 hours. | See also: Recent months at Cape Jaffa
Date/Time
CST
Temp
°C
App
Temp
°C
Dew
Point
Rel
Hum
%
Delta-T
°C
Wind Press
QNH
hPa
Press
MSL
hPa
Rain
since 9 am
mm
Dir
 
Spd
km/h
Gust
km/h
Spd
kts
Gust
kts
20/08:00pm 9.5 7.1 6.8 83 1.3 SSE 9 13 5 7 1028.0 1028.0 0.0
20/07:30pm 8.9 6.3 6.2 83 1.2 SE 9 11 5 6 1027.9 1027.9 0.0
20/07:00pm 9.5 6.5 6.2 80 1.5 SSE 11 13 6 7 1027.9 1027.9 0.0
20/06:30pm 10.0 7.5 6.5 79 1.6 SSE 9 13 5 7 1028.0 1028.0 0.0
20/06:00pm 10.3 7.5 6.8 79 1.6 SSE 11 13 6 7 1027.7 1027.7 0.0
20/05:30pm 10.6 7.7 6.6 76 1.9 SSE 11 15 6 8 1027.6 1027.6 0.0
20/05:00pm 11.2 7.3 7.3 77 1.9 S 17 20 9 11 1027.5 1027.5 0.0
20/04:30pm 11.3 7.0 7.0 75 2.0 S 19 24 10 13 1027.6 1027.6 0.0
20/04:00pm 11.7 8.1 6.8 72 2.3 S 15 19 8 10 1027.5 1027.5 0.0
20/03:30pm 12.0 8.5 5.4 64 3.0 SSW 13 15 7 8 1027.4 1027.4 0.0
20/03:00pm 12.3 9.0 4.8 60 3.4 SSW 11 15 6 8 1027.3 1027.3 0.0
20/02:30pm 12.4 9.6 5.3 62 3.3 SSW 9 11 5 6 1027.4 1027.4 0.0
20/02:00pm 12.4 9.5 4.6 59 3.6 SSW 9 13 5 7 1027.4 1027.4 0.0
20/01:30pm 12.6 9.6 4.3 57 3.7 SSE 9 13 5 7 1027.4 1027.4 0.0
20/01:00pm 12.7 10.7 4.4 57 3.8 SE 4 7 2 4 1027.6 1027.6 0.0
20/12:30pm 12.2 9.3 4.4 59 3.5 E 9 13 5 7 1027.9 1027.9 0.0
20/12:00pm 12.2 9.6 4.2 58 3.6 ESE 7 11 4 6 1028.2 1028.2 0.0
20/11:30am 12.5 8.5 5.0 60 3.4 E 15 19 8 10 1028.5 1028.5 0.0
20/11:00am 12.2 8.8 3.9 57 3.7 ESE 11 17 6 9 1028.7 1028.7 0.0
20/10:30am 12.0 9.0 5.9 66 2.8 E 11 15 6 8 1028.8 1028.8 0.0
20/10:00am 11.4 8.5 6.7 73 2.2 E 11 15 6 8 1028.7 1028.7 0.0
20/09:30am 10.8 7.9 6.7 76 1.9 ENE 11 13 6 7 1028.6 1028.6 0.0
20/09:00am 10.5 8.1 7.0 79 1.6 E 9 11 5 6 1028.5 1028.5 0.0
20/08:30am 10.2 8.0 6.4 77 1.8 E 7 9 4 5 1028.3 1028.3 0.0
20/08:00am 9.5 7.9 6.2 80 1.5 E 4 6 2 3 1028.0 1028.0 0.0
20/07:30am 9.2 7.6 6.3 82 1.3 E 4 4 2 2 1027.7 1027.7 0.0
20/07:00am 9.2 7.2 6.1 81 1.4 E 6 9 3 5 1027.4 1027.4 0.0
20/06:30am 9.1 7.8 6.2 82 1.3 SE 2 4 1 2 1027.1 1027.1 0.0
20/06:00am 8.9 6.7 6.3 84 1.2 SE 7 9 4 5 1027.0 1027.0 0.0
20/05:30am 9.3 6.4 6.6 83 1.2 SE 11 13 6 7 1026.9 1026.9 0.0
20/05:00am 9.1 6.6 6.5 84 1.2 SSE 9 11 5 6 1026.8 1026.8 0.0
20/04:30am 9.1 6.6 6.5 84 1.2 SSE 9 13 5 7 1026.7 1026.7 0.0
20/04:00am 8.8 6.3 6.4 85 1.1 SE 9 11 5 6 1026.6 1026.6 0.0
20/03:30am 8.7 6.7 6.3 85 1.1 ESE 6 9 3 5 1026.5 1026.5 0.0
20/03:00am 8.8 6.9 6.6 86 1.0 SSE 6 7 3 4 1026.6 1026.6 0.0
20/02:30am 8.7 6.8 6.7 87 0.9 SE 6 9 3 5 1026.8 1026.8 0.0
20/02:00am 9.1 7.1 7.1 87 0.9 SSE 7 11 4 6 1027.0 1027.0 0.0
20/01:30am 8.3 5.4 6.4 88 0.9 SSE 11 15 6 8 1027.0 1027.0 0.0
20/01:00am 8.7 6.8 6.7 87 0.9 SSE 6 7 3 4 1026.9 1026.9 0.0
20/12:30am 8.9 6.5 7.0 88 0.9 SSE 9 11 5 6 1027.1 1027.1 0.0
20/12:00am 9.1 6.4 7.4 89 0.8 SSE 11 15 6 8 1027.2 1027.2 0.0
 
Date/Time
CST
Temp
°C
App
Temp
°C
Dew
Point
Rel
Hum
%
Delta-T
°C
Wind Press
QNH
hPa
Press
MSL
hPa
Rain
since 9 am
mm
Dir
 
Spd
km/h
Gust
km/h
Spd
kts
Gust
kts
19/11:30pm 8.7 5.5 7.0 89 0.8 SSE 13 17 7 9 1027.3 1027.3 0.0
19/11:00pm 9.0 5.5 7.1 88 0.9 S 15 17 8 9 1027.2 1027.2 0.0
19/10:30pm 8.9 5.6 6.3 84 1.2 S 13 17 7 9 1027.3 1027.3 0.0
19/10:00pm 8.8 5.5 6.4 85 1.1 S 13 15 7 8 1027.5 1027.5 0.0
19/09:30pm 8.2 4.8 6.0 86 1.0 SSE 13 17 7 9 1027.4 1027.4 0.0
19/09:00pm 9.1 5.8 6.5 84 1.2 SSE 13 17 7 9 1027.3 1027.3 0.0
19/08:30pm 9.2 6.3 6.6 84 1.2 SSE 11 17 6 9 1027.2 1027.2 0.0
19/08:00pm 9.2 6.3 6.3 82 1.3 SSE 11 15 6 8 1027.2 1027.2 0.0
19/07:30pm 9.8 6.9 6.3 79 1.6 SSE 11 13 6 7 1027.1 1027.1 0.0
19/07:00pm 9.7 7.1 6.2 79 1.6 SSE 9 13 5 7 1026.9 1026.9 0.0
19/06:30pm 10.3 6.8 7.0 80 1.6 S 15 19 8 10 1026.8 1026.8 0.0
19/06:00pm 10.1 6.9 7.0 81 1.5 S 13 15 7 8 1026.4 1026.4 0.0
19/05:30pm 10.7 6.4 7.0 78 1.7 S 19 22 10 12 1026.1 1026.1 0.0
19/05:00pm 11.2 6.4 7.3 77 1.9 S 22 28 12 15 1025.8 1025.8 0.0
19/04:30pm 12.4 7.7 6.2 66 2.9 S 20 26 11 14 1025.6 1025.6 0.0
19/04:00pm 11.5 6.5 6.4 71 2.4 S 22 28 12 15 1025.5 1025.5 0.0
19/03:30pm 11.3 5.3 7.2 76 2.0 S 28 35 15 19 1025.4 1025.4 0.0
19/03:00pm 12.4 7.2 7.3 71 2.5 S 24 28 13 15 1025.4 1025.4 0.0
19/02:30pm 11.8 7.3 6.9 72 2.3 SSW 20 24 11 13 1025.3 1025.3 0.0
19/02:00pm 11.8 6.9 7.1 73 2.3 SSW 22 30 12 16 1025.4 1025.4 0.0
19/01:30pm 11.8 6.9 6.9 72 2.3 SSW 22 28 12 15 1025.4 1025.4 0.0
19/01:00pm 12.7 7.3 6.3 65 3.0 S 24 28 13 15 1025.5 1025.5 0.0
19/12:30pm 12.9 8.3 5.6 61 3.4 S 19 26 10 14 1025.8 1025.8 0.0
19/12:00pm 12.4 7.5 5.1 61 3.3 S 20 28 11 15 1026.1 1026.1 0.0
19/11:30am 12.8 8.6 5.5 61 3.4 S 17 24 9 13 1026.5 1026.5 0.0
19/11:00am 12.9 9.4 5.3 60 3.5 S 13 20 7 11 1026.6 1026.6 0.0
19/10:30am 12.1 7.4 5.0 62 3.2 S 19 30 10 16 1026.9 1026.9 0.0
19/10:00am 11.7 6.7 4.7 62 3.2 SSE 20 24 11 13 1027.0 - 0.0
19/09:30am 11.5 8.5 5.8 68 2.6 S 11 13 6 7 1026.9 1026.9 0.0
19/09:00am 11.0 8.3 5.5 69 2.5 SSE 9 13 5 7 1026.9 1026.9 0.0
19/08:30am 10.3 8.2 5.7 73 2.1 S 6 9 3 5 1026.6 1026.6 0.0
19/08:00am 9.9 7.7 5.1 72 2.2 SSE 6 9 3 5 1026.4 - 0.0
19/07:30am 9.2 7.0 5.2 76 1.8 ESE 6 9 3 5 1026.3 1026.3 0.0
19/07:00am 8.7 6.3 5.4 80 1.5 SE 7 11 4 6 1026.0 - 0.0
19/06:30am 9.3 7.0 5.7 78 1.6 S 7 11 4 6 1025.7 1025.7 0.0
19/06:00am 8.8 4.9 5.5 80 1.5 SSW 15 19 8 10 1025.5 1025.5 0.0
19/05:30am 8.2 5.2 6.0 86 1.0 S 11 13 6 7 1025.4 1025.4 0.0
19/05:00am 7.5 4.0 5.5 87 0.9 S 13 15 7 8 1025.3 - 0.0
19/04:30am 7.8 4.2 5.1 83 1.2 SSE 13 15 7 8 1025.2 1025.2 0.0
19/04:00am 7.6 4.0 5.1 84 1.1 SSE 13 19 7 10 1025.0 - 0.0
19/03:30am 8.4 5.5 4.8 78 1.6 SSE 9 13 5 7 1025.0 1025.0 0.0
19/03:00am 8.9 5.7 5.3 78 1.6 SE 11 17 6 9 1025.2 1025.2 0.0
19/02:30am 8.3 5.0 6.4 88 0.9 S 13 19 7 10 1025.4 1025.4 0.0
19/02:00am 7.3 4.9 5.1 86 1.0 SSE 7 15 4 8 1025.6 - 0.0
19/01:30am 7.3 5.0 4.6 83 1.2 S 6 7 3 4 1025.6 1025.6 0.0
19/01:00am 8.1 5.9 5.4 83 1.2 S 6 7 3 4 1025.7 - 0.0
19/12:30am 8.4 6.2 5.5 82 1.3 S 6 7 3 4 1025.7 1025.7 0.0
19/12:00am 8.8 6.2 5.9 82 1.3 SSW 9 11 5 6 1025.7 1025.7 0.0
 
Date/Time
CST
Temp
°C
App
Temp
°C
Dew
Point
Rel
Hum
%
Delta-T
°C
Wind Press
QNH
hPa
Press
MSL
hPa
Rain
since 9 am
mm
Dir
 
Spd
km/h
Gust
km/h
Spd
kts
Gust
kts
18/11:30pm 8.9 6.2 5.6 80 1.5 S 9 11 5 6 1025.8 1025.8 0.0
18/11:00pm 9.2 5.8 5.8 79 1.6 S 13 15 7 8 1025.8 - 0.0
18/10:30pm 8.8 6.0 5.2 78 1.6 SE 9 11 5 6 1025.8 1025.8 0.0
18/10:00pm 8.2 5.0 5.1 81 1.4 SE 11 17 6 9 1025.6 - 0.0
18/09:30pm 8.9 5.4 5.6 80 1.5 SSE 13 19 7 10 1025.8 1025.8 0.0
18/09:00pm 9.5 7.2 5.9 78 1.6 SSE 7 9 4 5 1025.8 1025.8 0.0
18/08:30pm 9.8 6.3 5.6 75 1.9 S 13 17 7 9 1025.6 1025.6 0.0
18/08:00pm 9.8 4.8 6.3 79 1.6 S 22 28 12 15 1025.4 - 0.0
18/07:30pm 9.6 5.8 5.8 77 1.7 S 15 19 8 10 1025.2 1025.2 0.0
18/07:00pm 9.8 6.1 6.3 79 1.6 SSE 15 20 8 11 1025.1 - 0.0
18/06:30pm 9.6 7.5 6.7 82 1.3 SSE 7 11 4 6 1024.7 1024.7 0.0
18/06:00pm 9.9 5.4 6.3 78 1.7 SSE 19 26 10 14 1024.3 1024.3 0.0
18/05:30pm 10.3 6.9 5.7 73 2.1 S 13 17 7 9 1024.0 1024.0 0.0
18/05:00pm 10.6 5.8 5.6 71 2.3 S 20 32 11 17 1023.8 - 0.0
18/04:30pm 11.2 6.7 6.1 71 2.4 S 19 24 10 13 1023.6 1023.6 0.0
18/04:00pm 11.1 6.7 6.5 73 2.2 SSE 19 28 10 15 1023.4 - 0.0
18/03:30pm 11.9 7.1 5.5 65 3.0 S 20 26 11 14 1023.2 1023.2 0.0
18/03:00pm 12.1 7.5 5.7 65 3.0 S 19 22 10 12 1023.2 1023.2 0.0
18/02:30pm 11.7 7.9 6.0 68 2.7 S 15 19 8 10 1023.2 1023.2 0.0
18/02:00pm 12.2 8.3 6.9 70 2.5 S 17 22 9 12 1023.3 - 0.0
18/01:30pm 12.2 8.5 6.3 67 2.8 S 15 20 8 11 1023.3 1023.3 0.0
18/01:00pm 12.1 8.6 7.4 73 2.3 S 15 20 8 11 1023.6 - 0.0
18/12:30pm 11.9 9.1 6.8 71 2.4 S 11 17 6 9 1024.0 1024.0 0.0
18/12:00pm 11.9 9.5 6.8 71 2.4 SE 9 19 5 10 1024.2 1024.2 0.0
18/11:30am 11.8 9.0 7.1 73 2.2 SE 11 17 6 9 1024.6 1024.6 0.0
18/11:00am 11.3 8.9 6.8 74 2.1 SE 9 13 5 7 1024.8 - 0.0
18/10:30am 11.3 8.8 6.6 73 2.2 SSE 9 13 5 7 1025.0 1025.0 0.0
18/10:00am 10.9 8.5 7.0 77 1.9 SE 9 13 5 7 1025.0 - 0.0
18/09:30am 10.1 8.0 6.8 80 1.5 SE 7 9 4 5 1025.1 1025.1 0.0
18/09:00am 9.5 7.3 6.0 79 1.6 SE 7 11 4 6 1024.9 1024.9 0.0
18/08:30am 8.9 7.0 6.5 85 1.1 SE 6 7 3 4 1024.7 1024.7 0.0
18/08:00am 8.2 6.2 6.3 88 0.9 SE 6 7 3 4 1024.6 - 0.0
18/07:30am 7.9 5.7 6.2 89 0.8 E 7 11 4 6 1024.5 1024.5 0.0
18/07:00am 7.8 5.6 6.1 89 0.8 E 7 9 4 5 1024.4 - 0.0
18/06:30am 7.7 5.5 6.0 89 0.8 SE 7 9 4 5 1024.1 1024.1 0.0
18/06:00am 7.7 6.0 6.0 89 0.8 ESE 4 6 2 3 1023.8 1023.8 0.0
18/05:30am 7.8 4.8 5.8 87 0.9 ESE 11 17 6 9 1023.6 1023.6 0.0
18/05:00am 8.8 4.4 5.0 77 1.7 SE 17 28 9 15 1023.2 - 0.0
18/04:30am 8.7 6.3 5.1 78 1.6 SE 7 9 4 5 1022.8 1022.8 0.0
18/04:00am 9.0 5.3 4.6 74 1.9 S 13 15 7 8 1022.7 - 0.0
18/03:30am 8.7 6.2 4.7 76 1.8 SE 7 9 4 5 1022.5 1022.5 0.0
18/03:00am 8.8 6.5 5.0 77 1.7 SE 6 7 3 4 1022.7 1022.7 0.0
18/02:30am 8.9 7.0 5.1 77 1.7 SSE 4 6 2 3 1022.7 1022.7 0.0
18/02:00am 8.4 6.0 5.3 81 1.4 SSE 7 9 4 5 1022.9 - 0.0
18/01:30am 7.0 4.0 4.0 81 1.3 SE 9 11 5 6 1023.0 1023.0 0.0
18/01:00am 8.2 5.3 4.8 79 1.5 SSE 9 11 5 6 1023.0 - 0.0
18/12:30am 7.5 4.6 4.5 81 1.3 S 9 11 5 6 1023.1 1023.1 0.0
18/12:00am 8.0 4.7 4.6 79 1.5 S 11 13 6 7 1023.0 1023.0 0.0
 
Date/Time
CST
Temp
°C
App
Temp
°C
Dew
Point
Rel
Hum
%
Delta-T
°C
Wind Press
QNH
hPa
Press
MSL
hPa
Rain
since 9 am
mm
Dir
 
Spd
km/h
Gust
km/h
Spd
kts
Gust
kts
17/11:30pm 7.2 3.7 3.6 78 1.5 S 11 13 6 7 1023.1 1023.1 0.0
17/11:00pm 7.6 5.0 4.0 78 1.6 SSE 7 13 4 7 1023.2 - 0.0
17/10:30pm 8.8 6.0 5.0 77 1.7 SSE 9 13 5 7 1023.2 1023.2 0.0
17/10:00pm 7.6 5.0 4.4 80 1.4 SSE 7 9 4 5 1023.2 - 0.0
17/09:30pm 8.0 5.0 4.2 77 1.6 SSE 9 11 5 6 1023.1 1023.1 0.0
17/09:00pm 8.1 5.2 4.5 78 1.6 SSE 9 11 5 6 1023.1 1023.1 0.0
17/08:30pm 8.5 4.9 4.9 78 1.6 SSE 13 15 7 8 1022.9 1022.9 0.0

Other Formats:

Comma delimited format used in spreadsheet applications
http://www.bom.gov.au/fwo/IDS60801/IDS60801.94813.axf

JavaScript Object Notation format (JSON) in row-major order
http://www.bom.gov.au/fwo/IDS60801/IDS60801.94813.json